Hat Yai International Airport

VTSS · Songkhla, 泰国

罗盘
风向 的 风向 的 风向 到 风向 060° Hat Yai International Airport 8/26
风: 13 kt, 4 beaufort

12 kt

5 kt
改变
0 ft 1.000 2.000 3.000 4.000 5.000
Cloud Cloud
FEW 2.000
METAR VTSS 150800Z 06013KT 050V120 9999 FEW020 36/23 Q1008 NOSIG

METAR Hat Yai International Airport - VTSS/HDY

Hat Yai International Airport是,泰国中的中型机场。 该机场位于纬度6,93268和经度100,39419。 该机场有一条跑道: 8/26. 本场的ICAO机场代码为VTSS。 该机场的IATA代码为HDY。 机场在Bangkok FIR中。

该航空气象观测是针对Hat Yai International Airport在2024年4月15日 15:00, 当地时间进行的。

机场观察

风向为060°,速度为13 kt。 风向在050°和120°之间变化。

可见度为10 km 或者更多。

有几云在2.000 ft的高度。 没有观察到天花板。

温度和风寒是36 °C。 热指数为42。 露点为23 °C,相对湿度为47%。 海平面上的气压为1008 hPa (QNH)。

白天

今天,太阳从06:10升起,在18:26降落。 这适用于Hat Yai International Airport,世界夏令时可能有所不同。 当地时间与世界标准时间之间的时差为+7 小时。 夏令时目前正在进行中。

公司介绍

我们没有关于这个机场的公司信息。

体会

到Vliegles.nl去找飞行课程,跳伞和其他飞行体验。 浏览页面,了解Hat Yai International Airport附近所有可用的活动。 你也可以使用搜索功能来寻找你所在地附近的特定飞行课程、跳伞或其他飞行体验。

跑道

Id 标题 侧风 逆风 侧风 %
8/26 083°-263° 5 kt 12 kt 39 %

逆风成分最大的方向会被突出显示,并用于横风计算。 这并不一定意味着这个方向在使用。

乌云

2.000 ft FEW 几云

温度 & 天气

温度 36 °C
露点 23 °C
相对湿度 47%
热度指数 42 °C
Kp-index 0 (0-9)

白天

日出
06:10
中午
12:18
日落
18:26 (2:56)

小工具

你想在你的网站上有一个关于Hat Yai International Airport的当前航空天气(METAR)的小部件吗?

显示HTML代码
报告变更